Time;durP1;ratioP1;P1;durP2;ratioP2;P2;SDS_P1;SDS_P2;PMS_P1;PMS_P2;Temp;Humidity;BMP_temperature;BMP_pressure;BME280_temperature;BME280_humidity;BME280_pressure;Samples;Min_cycle;Max_cycle;Signal;HPM_P1;HPM_P2
2022/09/03 00:00:55;;;;;;;61.33;51.22;;;25.10;58.60;;;;;;5008057;28;91061;-61
2022/09/03 00:03:33;;;;;;;62.42;51.97;;;25.10;58.60;;;;;;5010964;27;86992;-61
2022/09/03 00:06:09;;;;;;;62.20;51.80;;;25.10;58.60;;;;;;5015341;28;86282;-60
2022/09/03 00:08:47;;;;;;;62.13;51.72;;;25.10;58.70;;;;;;5013794;27;86874;-61
2022/09/03 00:11:22;;;;;;;62.67;52.03;;;25.10;58.70;;;;;;5010026;28;86862;-61
2022/09/03 00:14:13;;;;;;;61.60;51.53;;;25.10;58.60;;;;;;5007941;27;85157;-60
2022/09/03 00:16:41;;;;;;;61.15;51.50;;;25.10;58.70;;;;;;5008159;28;87227;-61
2022/09/03 00:19:07;;;;;;;62.13;51.63;;;25.10;58.70;;;;;;5003380;27;85752;-62
2022/09/03 00:22:02;;;;;;;62.05;51.58;;;25.00;58.70;;;;;;5011007;28;88090;-62
2022/09/03 00:24:34;;;;;;;63.88;51.67;;;25.00;58.70;;;;;;5000601;27;90353;-60
2022/09/03 00:27:05;;;;;;;61.88;51.60;;;25.00;58.60;;;;;;5012699;27;86438;-62
2022/09/03 00:30:02;;;;;;;61.83;51.53;;;25.00;58.70;;;;;;5012090;27;87687;-61
2022/09/03 00:33:01;;;;;;;61.97;51.67;;;25.00;58.70;;;;;;5008701;28;92230;-61
2022/09/03 00:35:40;;;;;;;62.30;51.45;;;25.00;58.70;;;;;;5011423;28;87945;-62
2022/09/03 00:38:07;;;;;;;62.47;51.47;;;25.00;58.70;;;;;;5005267;27;86323;-60
2022/09/03 00:40:57;;;;;;;63.85;51.58;;;25.00;58.70;;;;;;5006973;27;92163;-61
2022/09/03 00:43:51;;;;;;;62.25;51.40;;;25.00;58.70;;;;;;5014180;27;88141;-62
2022/09/03 00:46:33;;;;;;;61.38;51.58;;;25.00;58.70;;;;;;5012663;28;90961;-61
2022/09/03 00:49:26;;;;;;;61.33;51.60;;;25.00;58.80;;;;;;5006594;27;88589;-62
2022/09/03 00:52:30;;;;;;;61.50;51.30;;;25.00;58.80;;;;;;5005114;28;86795;-61
2022/09/03 00:55:29;;;;;;;60.97;51.45;;;25.00;58.70;;;;;;5009028;27;88163;-62
2022/09/03 00:58:16;;;;;;;60.58;51.10;;;24.90;58.70;;;;;;5017439;27;89945;-62
2022/09/03 01:00:44;;;;;;;62.05;51.13;;;24.90;58.70;;;;;;5012934;27;86012;-61
2022/09/03 01:03:17;;;;;;;61.55;51.55;;;24.90;58.80;;;;;;5007529;28;89200;-61
2022/09/03 01:06:02;;;;;;;61.55;51.53;;;24.90;58.70;;;;;;5016671;28;91109;-62
2022/09/03 01:08:47;;;;;;;62.22;51.47;;;24.90;58.70;;;;;;5003059;27;91564;-61
2022/09/03 01:11:44;;;;;;;62.10;51.53;;;24.90;58.70;;;;;;5006951;27;87346;-61
2022/09/03 01:14:42;;;;;;;62.00;51.25;;;24.90;58.70;;;;;;5010699;27;87806;-61
2022/09/03 01:17:20;;;;;;;61.65;51.63;;;24.90;58.80;;;;;;5015860;28;86825;-61
2022/09/03 01:20:19;;;;;;;62.83;51.42;;;24.90;58.70;;;;;;5009138;28;90693;-62
2022/09/03 01:23:04;;;;;;;61.03;51.28;;;24.80;58.70;;;;;;5010621;27;85702;-63
2022/09/03 01:25:51;;;;;;;61.35;51.20;;;24.90;58.80;;;;;;5009275;28;85435;-61
2022/09/03 01:28:55;;;;;;;61.70;51.45;;;24.80;58.70;;;;;;5002279;27;91034;-62
2022/09/03 01:31:32;;;;;;;61.20;51.53;;;24.90;58.80;;;;;;5012077;28;85477;-61
2022/09/03 01:34:30;;;;;;;60.70;51.15;;;24.80;58.80;;;;;;5009662;27;86530;-61
2022/09/03 01:37:06;;;;;;;60.90;51.22;;;24.80;58.80;;;;;;5013840;27;87366;-62
2022/09/03 01:39:57;;;;;;;61.58;51.33;;;24.80;58.80;;;;;;5008890;27;91534;-62
2022/09/03 01:42:47;;;;;;;60.77;51.27;;;24.80;58.80;;;;;;5006476;28;86217;-62
2022/09/03 01:45:22;;;;;;;61.78;51.42;;;24.80;58.80;;;;;;5013573;28;87724;-62
2022/09/03 01:48:03;;;;;;;60.97;51.15;;;24.80;58.90;;;;;;5007850;28;85796;-61
2022/09/03 01:50:58;;;;;;;61.42;51.45;;;24.80;58.80;;;;;;5009182;27;86300;-60
2022/09/03 01:53:43;;;;;;;61.25;51.42;;;24.80;58.90;;;;;;5012432;28;85490;-61
2022/09/03 01:56:39;;;;;;;62.47;51.13;;;24.80;58.80;;;;;;5004969;28;86301;-60
2022/09/03 01:59:29;;;;;;;61.63;51.70;;;24.80;58.90;;;;;;5007720;27;86652;-61
2022/09/03 02:02:01;;;;;;;61.95;51.55;;;24.70;58.90;;;;;;5014360;27;86640;-61
2022/09/03 02:04:27;;;;;;;62.10;51.58;;;24.80;58.90;;;;;;5016885;27;85979;-61
2022/09/03 02:06:56;;;;;;;61.13;51.58;;;24.70;58.80;;;;;;5015722;28;86193;-61
2022/09/03 02:09:23;;;;;;;61.38;51.17;;;24.80;58.80;;;;;;5008727;28;88947;-61
2022/09/03 02:12:07;;;;;;;61.13;51.42;;;24.80;58.90;;;;;;5009588;28;86182;-61
2022/09/03 02:14:34;;;;;;;61.60;51.35;;;24.70;58.80;;;;;;5005561;27;86706;-61
2022/09/03 02:17:01;;;;;;;61.47;51.50;;;24.70;58.80;;;;;;5019959;27;86766;-60
2022/09/03 02:19:33;;;;;;;60.92;51.22;;;24.80;58.80;;;;;;5014317;27;88033;-61
2022/09/03 02:21:59;;;;;;;61.35;51.30;;;24.70;58.80;;;;;;5013008;28;90996;-61
2022/09/03 02:24:27;;;;;;;61.63;51.38;;;24.70;58.70;;;;;;5006705;27;85454;-62
2022/09/03 02:26:52;;;;;;;60.90;51.22;;;24.70;58.70;;;;;;5017387;27;85158;-61
2022/09/03 02:29:19;;;;;;;61.33;51.47;;;24.70;58.70;;;;;;5011658;27;89284;-61
2022/09/03 02:31:44;;;;;;;61.50;51.55;;;24.70;58.60;;;;;;5011326;27;85830;-62
2022/09/03 02:34:10;;;;;;;61.08;51.30;;;24.70;58.60;;;;;;5018074;27;85703;-62
2022/09/03 02:36:40;;;;;;;61.15;51.22;;;24.70;58.70;;;;;;5012445;27;88229;-61
2022/09/03 02:39:06;;;;;;;61.72;51.53;;;24.70;58.60;;;;;;5012412;28;86684;-61
2022/09/03 02:41:32;;;;;;;63.03;51.47;;;24.70;58.50;;;;;;5016103;28;87159;-62
2022/09/03 02:44:22;;;;;;;61.35;51.65;;;24.70;58.50;;;;;;5016775;27;89123;-62
2022/09/03 02:46:55;;;;;;;62.00;51.53;;;24.70;58.50;;;;;;5020539;28;86598;-61
2022/09/03 02:49:21;;;;;;;61.35;51.65;;;24.70;58.50;;;;;;5011531;27;86986;-61
2022/09/03 02:51:47;;;;;;;61.38;51.50;;;24.70;58.60;;;;;;5015971;28;88176;-61
2022/09/03 02:54:13;;;;;;;61.97;51.75;;;24.70;58.60;;;;;;5016096;27;87011;-62
2022/09/03 02:56:39;;;;;;;61.95;51.65;;;24.70;58.60;;;;;;5022879;27;89973;-62
2022/09/03 02:59:06;;;;;;;62.97;51.63;;;24.70;58.60;;;;;;5014694;27;86803;-62
2022/09/03 03:01:33;;;;;;;61.40;51.53;;;24.70;58.60;;;;;;5011051;27;90674;-63
2022/09/03 03:03:58;;;;;;;61.85;51.90;;;24.70;58.50;;;;;;5015099;28;90115;-62
2022/09/03 03:06:24;;;;;;;62.03;51.42;;;24.70;58.50;;;;;;5018131;28;85523;-61
2022/09/03 03:08:50;;;;;;;61.35;51.40;;;24.70;58.50;;;;;;5015981;27;92150;-61
2022/09/03 03:11:18;;;;;;;62.70;51.75;;;24.70;58.50;;;;;;5014597;28;86535;-62
2022/09/03 03:13:45;;;;;;;61.67;51.47;;;24.70;58.60;;;;;;5017933;27;91060;-61
2022/09/03 03:16:11;;;;;;;60.88;51.33;;;24.70;58.50;;;;;;5022999;28;88131;-61
2022/09/03 03:18:38;;;;;;;61.08;51.65;;;24.70;58.50;;;;;;5019218;28;88627;-61
2022/09/03 03:21:08;;;;;;;62.88;51.63;;;24.60;58.50;;;;;;5013350;27;85347;-63
2022/09/03 03:23:35;;;;;;;61.95;51.80;;;24.70;58.60;;;;;;5012590;27;86312;-60
2022/09/03 03:26:02;;;;;;;61.50;51.53;;;24.70;58.60;;;;;;5015809;28;86854;-60
2022/09/03 03:28:28;;;;;;;61.50;51.60;;;24.70;58.50;;;;;;5014016;27;89641;-61
2022/09/03 03:30:54;;;;;;;61.97;51.78;;;24.70;58.50;;;;;;5018412;28;89472;-62
2022/09/03 03:33:19;;;;;;;61.10;51.55;;;24.60;58.50;;;;;;5023233;27;90858;-61
2022/09/03 03:35:45;;;;;;;61.88;51.72;;;24.60;58.50;;;;;;5019034;27;85332;-62
2022/09/03 03:38:11;;;;;;;61.88;51.47;;;24.70;58.40;;;;;;5009160;27;91405;-61
2022/09/03 03:40:38;;;;;;;62.03;51.65;;;24.70;58.50;;;;;;5014352;28;86908;-62
2022/09/03 03:43:03;;;;;;;61.30;51.42;;;24.70;58.50;;;;;;5021312;28;85078;-61
2022/09/03 03:45:29;;;;;;;61.40;51.45;;;24.60;58.50;;;;;;5015199;27;86064;-60
2022/09/03 03:47:58;;;;;;;62.28;52.13;;;24.60;58.50;;;;;;5011273;28;87415;-61
2022/09/03 03:50:24;;;;;;;61.33;51.42;;;24.60;58.50;;;;;;5014516;27;86184;-61
2022/09/03 03:52:50;;;;;;;61.90;51.67;;;24.60;58.50;;;;;;5017805;27;85945;-61
2022/09/03 03:55:15;;;;;;;62.08;51.58;;;24.60;58.50;;;;;;5021188;27;91005;-62
2022/09/03 03:57:41;;;;;;;62.85;51.65;;;24.60;58.50;;;;;;5016971;28;91496;-61
2022/09/03 04:00:07;;;;;;;62.05;51.70;;;24.60;58.50;;;;;;5020395;28;86005;-60
2022/09/03 04:02:33;;;;;;;61.50;51.65;;;24.50;58.50;;;;;;5012666;27;85133;-60
2022/09/03 04:04:59;;;;;;;62.13;51.45;;;24.60;58.50;;;;;;5016733;28;86537;-61
2022/09/03 04:07:24;;;;;;;61.92;51.78;;;24.60;58.50;;;;;;5017283;28;86500;-62
2022/09/03 04:09:50;;;;;;;63.00;51.80;;;24.60;58.50;;;;;;5016012;27;86525;-61
2022/09/03 04:12:16;;;;;;;61.67;51.47;;;24.50;58.40;;;;;;5006170;27;86996;-61
2022/09/03 04:14:42;;;;;;;64.55;52.05;;;24.50;58.60;;;;;;5014505;28;86902;-61
2022/09/03 04:17:09;;;;;;;61.75;51.97;;;24.50;58.60;;;;;;5019338;28;90394;-60
2022/09/03 04:19:35;;;;;;;61.45;51.75;;;24.50;58.60;;;;;;5024380;28;90148;-62
2022/09/03 04:22:01;;;;;;;60.83;51.60;;;24.50;58.50;;;;;;5010566;28;89888;-61
2022/09/03 04:24:27;;;;;;;62.00;51.60;;;24.50;58.50;;;;;;5012220;27;85860;-61
2022/09/03 04:26:53;;;;;;;62.58;51.75;;;24.50;58.40;;;;;;5013622;28;85620;-62
2022/09/03 04:29:20;;;;;;;62.35;51.75;;;24.50;58.40;;;;;;5013110;27;86036;-62
2022/09/03 04:34:30;;;;;;;61.92;52.03;;;24.50;58.60;;;;;;5017422;28;85321;-60
2022/09/03 04:36:57;;;;;;;62.47;51.72;;;24.40;58.60;;;;;;5018509;28;91538;-60
2022/09/03 04:39:24;;;;;;;61.47;51.72;;;24.50;58.60;;;;;;5013146;28;86254;-61
2022/09/03 04:41:49;;;;;;;62.65;51.95;;;24.40;58.50;;;;;;5010327;27;85824;-61
2022/09/03 04:44:15;;;;;;;61.75;52.05;;;24.40;58.60;;;;;;5011555;28;85454;-61
2022/09/03 04:46:41;;;;;;;62.00;51.95;;;24.40;58.60;;;;;;5017633;27;86514;-61
2022/09/03 04:49:08;;;;;;;61.53;51.58;;;24.40;58.50;;;;;;5016327;27;86497;-61
2022/09/03 04:51:36;;;;;;;61.65;51.55;;;24.40;58.60;;;;;;5007177;28;91808;-61
2022/09/03 04:54:02;;;;;;;62.83;51.90;;;24.40;58.60;;;;;;5015198;28;86601;-62
2022/09/03 04:56:30;;;;;;;62.38;51.92;;;24.40;58.60;;;;;;5025635;27;86804;-61
2022/09/03 04:59:05;;;;;;;61.78;51.50;;;24.40;58.50;;;;;;5014224;27;85491;-61
2022/09/03 05:01:33;;;;;;;61.42;51.50;;;24.40;58.60;;;;;;5011872;27;86273;-61
2022/09/03 05:03:59;;;;;;;63.90;51.78;;;24.40;59.20;;;;;;5011327;28;88992;-61
2022/09/03 05:06:26;;;;;;;62.53;51.95;;;24.40;58.60;;;;;;5017210;27;85799;-61
2022/09/03 05:08:53;;;;;;;62.38;52.08;;;24.40;58.60;;;;;;5013632;27;87291;-62
2022/09/03 05:11:19;;;;;;;61.80;51.60;;;24.40;58.60;;;;;;5005335;28;87145;-62
2022/09/03 05:13:53;;;;;;;61.50;51.90;;;24.30;58.50;;;;;;5010552;27;85519;-61
2022/09/03 05:16:19;;;;;;;61.75;51.58;;;24.30;58.60;;;;;;5017606;28;90909;-61
2022/09/03 05:18:45;;;;;;;62.80;52.05;;;24.30;58.60;;;;;;5015501;28;86311;-60
2022/09/03 05:21:14;;;;;;;62.38;51.92;;;24.40;58.60;;;;;;5012281;28;85577;-61
2022/09/03 05:23:41;;;;;;;62.03;52.00;;;24.40;58.60;;;;;;5013557;27;89702;-60
2022/09/03 05:26:10;;;;;;;61.45;51.85;;;24.40;58.60;;;;;;5013704;27;86324;-60
2022/09/03 05:28:38;;;;;;;63.00;51.88;;;24.30;58.60;;;;;;5003048;28;86782;-59
2022/09/03 05:31:13;;;;;;;62.08;52.03;;;24.40;58.60;;;;;;5002130;27;88885;-60
2022/09/03 05:33:41;;;;;;;64.00;52.25;;;24.30;58.50;;;;;;5007085;27;85619;-60
2022/09/03 05:36:10;;;;;;;62.58;52.22;;;24.40;58.80;;;;;;5010832;28;91402;-60
2022/09/03 05:38:36;;;;;;;61.75;51.88;;;24.30;58.70;;;;;;4991989;27;92199;-60
2022/09/03 05:41:07;;;;;;;64.95;52.55;;;24.40;58.60;;;;;;4995831;28;86056;-60
2022/09/03 05:43:34;;;;;;;64.63;52.67;;;24.40;58.50;;;;;;5006863;28;86015;-60
2022/09/03 05:46:02;;;;;;;63.50;52.70;;;24.40;58.30;;;;;;5012341;28;87645;-60
2022/09/03 05:48:32;;;;;;;64.97;53.20;;;24.40;58.20;;;;;;5003731;28;86044;-60
2022/09/03 05:51:03;;;;;;;63.70;53.28;;;24.40;58.10;;;;;;5007236;28;86123;-60
2022/09/03 05:53:31;;;;;;;65.75;53.83;;;24.40;58.00;;;;;;5003710;28;89839;-60
2022/09/03 05:55:58;;;;;;;65.95;53.53;;;24.40;57.90;;;;;;5009594;28;86713;-60
2022/09/03 05:58:29;;;;;;;68.47;53.80;;;24.40;57.90;;;;;;4999646;27;87118;-60
2022/09/03 06:00:54;;;;;;;65.03;54.07;;;24.40;57.80;;;;;;5002015;27;86851;-61
2022/09/03 06:03:20;;;;;;;67.82;54.20;;;24.50;58.00;;;;;;5001326;27;87038;-60
2022/09/03 06:05:53;;;;;;;65.75;54.42;;;24.40;57.90;;;;;;5007806;27;86926;-60
2022/09/03 06:08:20;;;;;;;65.45;54.15;;;24.40;57.90;;;;;;5001332;27;86255;-60
2022/09/03 06:10:46;;;;;;;67.90;54.53;;;24.40;57.90;;;;;;5008175;28;85508;-60
2022/09/03 06:13:12;;;;;;;66.30;53.90;;;24.40;57.90;;;;;;5008535;27;88962;-60
2022/09/03 06:15:38;;;;;;;66.15;54.03;;;24.40;58.00;;;;;;5008770;27;85686;-60
2022/09/03 06:18:04;;;;;;;64.15;53.85;;;24.40;58.10;;;;;;5005815;28;86528;-60
2022/09/03 06:20:31;;;;;;;64.80;53.83;;;24.40;58.10;;;;;;5010040;28;86388;-60
2022/09/03 06:22:57;;;;;;;66.10;53.92;;;24.40;58.10;;;;;;5007771;27;91232;-60
2022/09/03 06:25:23;;;;;;;66.88;54.28;;;24.40;58.20;;;;;;5001272;27;87115;-60
2022/09/03 06:27:49;;;;;;;65.32;53.83;;;24.40;58.20;;;;;;5004076;28;86243;-60
2022/09/03 06:30:15;;;;;;;65.75;53.88;;;24.40;58.30;;;;;;5000749;28;85894;-60
2022/09/03 06:32:52;;;;;;;66.43;53.83;;;24.40;58.30;;;;;;4998247;27;86723;-60
2022/09/03 06:35:18;;;;;;;68.10;53.75;;;24.40;58.40;;;;;;5010852;28;86969;-60
2022/09/03 06:37:44;;;;;;;65.72;54.28;;;24.40;58.40;;;;;;5008283;27;86353;-60
2022/09/03 06:40:19;;;;;;;68.18;54.13;;;24.40;58.50;;;;;;5002596;28;91279;-60
2022/09/03 06:43:01;;;;;;;66.22;54.17;;;24.40;58.50;;;;;;5005786;28;87177;-60
2022/09/03 06:45:28;;;;;;;66.00;53.88;;;24.40;58.60;;;;;;5005557;27;86830;-60
2022/09/03 06:47:53;;;;;;;65.00;54.22;;;24.40;58.70;;;;;;5011881;27;86610;-60
2022/09/03 06:50:19;;;;;;;67.68;54.08;;;24.40;58.70;;;;;;5004636;28;86815;-60
2022/09/03 06:52:53;;;;;;;66.43;54.33;;;24.40;58.70;;;;;;5004944;28;86917;-60
2022/09/03 06:55:21;;;;;;;64.30;53.95;;;24.40;58.90;;;;;;5011111;27;87094;-60
2022/09/03 06:57:47;;;;;;;65.72;54.05;;;24.40;58.90;;;;;;5011723;28;86322;-60
2022/09/03 07:00:14;;;;;;;66.10;53.70;;;24.40;59.00;;;;;;4986297;28;85603;-60
2022/09/03 07:02:40;;;;;;;67.25;53.88;;;24.40;59.00;;;;;;5011800;28;86012;-60
2022/09/03 07:05:07;;;;;;;66.85;53.97;;;24.40;59.20;;;;;;4999091;27;86674;-60
2022/09/03 07:07:33;;;;;;;65.95;53.97;;;24.40;59.20;;;;;;4997715;27;88787;-60
2022/09/03 07:10:00;;;;;;;66.32;54.20;;;24.40;59.40;;;;;;5001666;27;87661;-63
2022/09/03 07:12:26;;;;;;;66.78;54.00;;;24.50;59.50;;;;;;5007144;27;85921;-64
2022/09/03 07:14:51;;;;;;;65.28;53.97;;;24.50;59.70;;;;;;5011814;27;89168;-60
2022/09/03 07:17:17;;;;;;;65.93;53.83;;;24.50;59.90;;;;;;5002485;27;86435;-58
2022/09/03 07:19:43;;;;;;;64.47;53.53;;;24.50;59.90;;;;;;5003964;27;91684;-59
2022/09/03 07:22:09;;;;;;;64.95;53.38;;;24.50;60.00;;;;;;5000541;27;86819;-57
2022/09/03 07:24:36;;;;;;;63.92;53.20;;;24.50;59.80;;;;;;5007841;27;86920;-58
2022/09/03 07:27:04;;;;;;;67.25;54.15;;;24.50;59.90;;;;;;4996791;27;85754;-59
2022/09/03 07:29:30;;;;;;;63.53;53.47;;;24.50;59.90;;;;;;5009436;27;86545;-57
2022/09/03 07:31:55;;;;;;;66.05;53.38;;;24.50;60.10;;;;;;5007670;27;90073;-59
2022/09/03 07:34:25;;;;;;;63.97;53.40;;;24.50;60.00;;;;;;5009634;27;87560;-59
2022/09/03 07:36:52;;;;;;;64.30;52.95;;;24.50;60.00;;;;;;5007564;27;89251;-59
2022/09/03 07:39:18;;;;;;;65.68;53.08;;;24.50;59.90;;;;;;5010533;27;89092;-59
2022/09/03 07:41:45;;;;;;;63.97;53.08;;;24.50;59.90;;;;;;5003930;27;86511;-52
2022/09/03 07:44:18;;;;;;;65.28;53.10;;;24.60;59.90;;;;;;4996394;27;87786;-52
2022/09/03 07:46:46;;;;;;;63.67;52.90;;;24.60;59.60;;;;;;4995120;27;91319;-51
2022/09/03 07:49:12;;;;;;;69.45;53.08;;;24.60;59.70;;;;;;4997129;27;88697;-54
2022/09/03 07:51:38;;;;;;;65.88;53.53;;;24.70;59.80;;;;;;4995905;27;86532;-52
2022/09/03 07:54:08;;;;;;;66.40;53.83;;;24.60;59.70;;;;;;5000123;27;88442;-58
2022/09/03 07:56:34;;;;;;;66.88;55.75;;;24.70;60.60;;;;;;5005741;27;86284;-59
2022/09/03 07:59:01;;;;;;;69.65;55.70;;;24.40;61.50;;;;;;5012840;27;85891;-61
2022/09/03 08:01:30;;;;;;;68.15;55.90;;;24.40;61.30;;;;;;5001862;27;87601;-59
2022/09/03 08:03:56;;;;;;;68.28;56.33;;;24.30;62.40;;;;;;5007642;27;92727;-60
2022/09/03 08:06:25;;;;;;;67.05;55.65;;;24.20;63.50;;;;;;5002411;27;91479;-56
2022/09/03 08:09:17;;;;;;;67.43;54.38;;;24.10;63.30;;;;;;4997747;27;88893;-58
2022/09/03 08:11:42;;;;;;;67.18;55.35;;;24.20;63.50;;;;;;4998903;27;86164;-61
2022/09/03 08:14:10;;;;;;;68.90;55.78;;;24.10;63.50;;;;;;5002748;27;87635;-56
2022/09/03 08:16:40;;;;;;;71.97;56.33;;;24.10;63.40;;;;;;5005287;27;86545;-60
2022/09/03 08:19:06;;;;;;;66.97;56.17;;;24.20;64.20;;;;;;4997890;27;91103;-56
2022/09/03 08:21:32;;;;;;;67.78;56.25;;;24.10;64.20;;;;;;5007834;27;85811;-58
2022/09/03 08:24:04;;;;;;;67.07;55.33;;;24.10;64.10;;;;;;5010332;27;91826;-60
2022/09/03 08:26:35;;;;;;;67.95;55.92;;;24.10;64.00;;;;;;5003110;27;86597;-60
2022/09/03 08:29:02;;;;;;;67.07;56.50;;;24.10;64.00;;;;;;5013021;27;87510;-58
2022/09/03 08:31:29;;;;;;;66.68;54.72;;;24.20;64.60;;;;;;5001403;27;88531;-60
2022/09/03 08:33:57;;;;;;;66.88;56.65;;;24.20;63.90;;;;;;5009542;27;85963;-58
2022/09/03 08:36:26;;;;;;;65.95;55.13;;;24.30;64.90;;;;;;4998078;27;86421;-57
2022/09/03 08:38:56;;;;;;;65.97;54.42;;;24.30;64.60;;;;;;5004749;27;85349;-58
2022/09/03 08:41:21;;;;;;;70.35;56.53;;;24.30;64.60;;;;;;5008737;28;86213;-58
2022/09/03 08:44:06;;;;;;;70.63;57.28;;;24.40;64.60;;;;;;5003879;27;85943;-60
2022/09/03 08:46:52;;;;;;;68.57;57.28;;;24.30;63.90;;;;;;5003464;27;87718;-59
2022/09/03 08:49:54;;;;;;;66.70;55.47;;;24.30;64.30;;;;;;5011536;27;89106;-57
2022/09/03 08:52:48;;;;;;;68.57;56.03;;;24.30;64.50;;;;;;5001929;27;87864;-61
2022/09/03 08:55:43;;;;;;;71.65;56.63;;;24.40;64.70;;;;;;5008231;27;88431;-60
2022/09/03 08:58:19;;;;;;;69.95;58.15;;;24.30;64.20;;;;;;5009123;27;86347;-60
2022/09/03 09:01:02;;;;;;;70.18;57.05;;;24.40;64.30;;;;;;5002418;27;85924;-61
2022/09/03 09:03:46;;;;;;;68.63;55.70;;;24.40;64.80;;;;;;5002677;27;86414;-61
2022/09/03 09:06:38;;;;;;;70.53;58.30;;;24.40;64.60;;;;;;5010881;27;86191;-60
2022/09/03 09:09:13;;;;;;;70.22;56.67;;;24.40;64.90;;;;;;5011198;27;86989;-57
2022/09/03 09:11:59;;;;;;;75.15;58.40;;;24.40;64.70;;;;;;5005710;27;87030;-61
2022/09/03 09:14:57;;;;;;;73.85;56.95;;;24.40;64.80;;;;;;5008459;27;86583;-60
2022/09/03 09:17:30;;;;;;;70.40;58.38;;;24.40;64.70;;;;;;4993942;27;92477;-58
2022/09/03 09:20:17;;;;;;;69.93;56.25;;;24.50;64.50;;;;;;5006463;27;86476;-60
2022/09/03 09:22:57;;;;;;;70.78;58.53;;;24.50;64.40;;;;;;5005572;27;89672;-59
2022/09/03 09:25:30;;;;;;;68.15;56.88;;;24.50;64.50;;;;;;4994516;27;86985;-53
2022/09/03 09:27:58;;;;;;;70.90;59.78;;;24.60;64.20;;;;;;5008411;27;86003;-60
2022/09/03 09:30:24;;;;;;;73.78;60.00;;;24.60;64.10;;;;;;5005670;27;90249;-58
2022/09/03 09:32:50;;;;;;;68.78;56.83;;;24.50;65.50;;;;;;5009265;27;85762;-58
2022/09/03 09:35:17;;;;;;;67.30;56.03;;;24.50;64.40;;;;;;5005748;27;87416;-60
2022/09/03 09:37:56;;;;;;;72.80;61.47;;;24.60;64.90;;;;;;5001693;27;85913;-56
2022/09/03 09:40:32;;;;;;;70.40;57.70;;;24.60;64.70;;;;;;4998918;27;87139;-58
2022/09/03 09:43:10;;;;;;;72.18;57.00;;;24.50;64.50;;;;;;5002068;27;86125;-58
2022/09/03 09:45:39;;;;;;;73.00;60.83;;;24.60;64.80;;;;;;5013938;27;93085;-57
2022/09/03 09:48:21;;;;;;;73.60;60.92;;;24.60;64.70;;;;;;4998906;27;93477;-58
2022/09/03 09:50:46;;;;;;;70.55;56.90;;;24.60;64.00;;;;;;5007289;27;90711;-58
2022/09/03 09:53:16;;;;;;;73.75;59.80;;;24.70;64.10;;;;;;4998677;27;91895;-58
2022/09/03 09:55:57;;;;;;;74.15;58.65;;;24.70;64.50;;;;;;4993727;27;92590;-56
2022/09/03 09:58:27;;;;;;;70.82;58.90;;;24.70;64.10;;;;;;5005393;27;86889;-54
2022/09/03 10:01:17;;;;;;;73.40;59.25;;;24.70;64.40;;;;;;5000290;27;87069;-54
2022/09/03 10:03:55;;;;;;;76.22;62.45;;;24.80;63.90;;;;;;5004741;27;86727;-59
2022/09/03 10:09:18;;;;;;;72.68;60.67;;;24.90;64.30;;;;;;4994747;27;86833;-58
2022/09/03 10:11:52;;;;;;;73.00;57.80;;;24.90;63.80;;;;;;4997218;27;86827;-55
2022/09/03 10:14:49;;;;;;;73.57;59.75;;;24.90;63.60;;;;;;4998592;27;86339;-56
2022/09/03 10:17:27;;;;;;;77.20;57.28;;;25.00;63.90;;;;;;4998945;27;86259;-57
2022/09/03 10:23:03;;;;;;;;;;;25.10;63.60;;;;;;5008804;27;88129;-56
2022/09/03 10:25:41;;;;;;;76.47;59.72;;;25.10;63.80;;;;;;5001984;27;84964;-58
2022/09/03 10:28:09;;;;;;;75.50;60.97;;;25.10;63.90;;;;;;5002069;27;92459;-55
2022/09/03 10:31:05;;;;;;;73.65;59.05;;;25.10;63.90;;;;;;5005888;27;88456;-57
2022/09/03 10:33:41;;;;;;;74.47;60.90;;;25.10;64.60;;;;;;5005000;27;86766;-57
2022/09/03 10:36:20;;;;;;;75.03;58.95;;;25.20;64.30;;;;;;4998495;27;87674;-58
2022/09/03 10:39:01;;;;;;;72.75;57.40;;;25.30;64.20;;;;;;4999519;27;87631;-59
2022/09/03 10:41:38;;;;;;;73.50;56.58;;;25.30;63.90;;;;;;5009275;27;87607;-58
2022/09/03 10:44:29;;;;;;;73.70;56.78;;;25.40;63.60;;;;;;5018859;27;85441;-57
2022/09/03 10:47:10;;;;;;;71.15;55.97;;;25.40;63.20;;;;;;5020146;27;85394;-59
2022/09/03 10:50:09;;;;;;;;;;;25.40;63.00;;;;;;5020833;27;87714;-59
2022/09/03 10:52:48;;;;;;;71.22;55.92;;;25.50;62.90;;;;;;5009738;28;88630;-59
2022/09/03 10:55:19;;;;;;;71.07;55.80;;;25.50;62.70;;;;;;5024695;27;85266;-59
2022/09/03 10:57:47;;;;;;;72.85;56.03;;;25.60;62.60;;;;;;5016187;27;89086;-58
2022/09/03 11:00:17;;;;;;;70.13;55.50;;;25.60;62.40;;;;;;5017545;27;90533;-58
2022/09/03 11:02:51;;;;;;;70.00;55.38;;;25.60;62.20;;;;;;5013305;27;92277;-59
2022/09/03 11:05:23;;;;;;;70.43;55.08;;;25.60;62.10;;;;;;5019732;27;85590;-59
2022/09/03 11:08:00;;;;;;;68.72;54.95;;;25.60;62.00;;;;;;5024207;28;86238;-59
2022/09/03 11:10:31;;;;;;;67.72;55.30;;;25.60;61.90;;;;;;5016528;27;88879;-59
2022/09/03 11:13:19;;;;;;;68.60;55.10;;;25.60;61.70;;;;;;5012526;27;86216;-58
2022/09/03 11:16:12;;;;;;;69.70;55.22;;;25.60;61.50;;;;;;5015134;27;86345;-58
2022/09/03 11:18:52;;;;;;;69.20;55.45;;;25.60;61.40;;;;;;5015680;27;85794;-58
2022/09/03 11:21:23;;;;;;;70.35;55.15;;;25.60;61.30;;;;;;5014601;27;89815;-57
2022/09/03 11:24:01;;;;;;;70.07;55.08;;;25.70;61.20;;;;;;5026128;27;85473;-58
2022/09/03 11:26:27;;;;;;;67.55;54.83;;;25.70;61.10;;;;;;5009228;27;88144;-58
2022/09/03 11:29:19;;;;;;;66.32;54.85;;;25.70;61.00;;;;;;5019006;27;88123;-59
2022/09/03 11:32:10;;;;;;;67.70;54.55;;;25.70;60.90;;;;;;5017987;27;85955;-58
2022/09/03 11:34:48;;;;;;;67.85;55.05;;;25.70;60.80;;;;;;5023701;27;86965;-57
2022/09/03 11:37:25;;;;;;;67.60;54.70;;;25.70;60.60;;;;;;5019849;27;90695;-58
2022/09/03 11:40:18;;;;;;;68.35;55.08;;;25.70;60.60;;;;;;5018259;27;86625;-58
2022/09/03 11:42:44;;;;;;;67.07;54.47;;;25.80;60.40;;;;;;5010277;27;91119;-59
2022/09/03 11:45:20;;;;;;;68.13;54.38;;;25.80;60.30;;;;;;5016887;27;87156;-59
2022/09/03 11:47:47;;;;;;;68.13;54.63;;;25.80;60.20;;;;;;5013838;27;85452;-58
2022/09/03 11:50:26;;;;;;;68.45;55.00;;;25.80;60.10;;;;;;5019259;27;86045;-59
2022/09/03 11:53:05;;;;;;;68.15;54.53;;;25.80;60.00;;;;;;5013442;27;86301;-59
2022/09/03 11:55:45;;;;;;;66.70;54.45;;;25.80;59.90;;;;;;5010886;27;86969;-58
2022/09/03 11:58:28;;;;;;;66.87;54.67;;;25.80;59.80;;;;;;5015166;28;87285;-59
2022/09/03 12:00:54;;;;;;;68.80;54.70;;;25.80;59.80;;;;;;5016061;27;86111;-59
2022/09/03 12:03:38;;;;;;;67.43;55.15;;;25.80;59.70;;;;;;5013116;27;86811;-58
2022/09/03 12:06:29;;;;;;;66.35;54.72;;;25.90;59.70;;;;;;5015205;27;87565;-59
2022/09/03 12:09:12;;;;;;;66.80;53.90;;;25.90;59.60;;;;;;5015746;27;87008;-58
2022/09/03 12:11:50;;;;;;;66.80;54.03;;;25.90;59.50;;;;;;5018556;27;85660;-59
2022/09/03 12:15:02;;;;;;;67.32;54.58;;;25.90;59.40;;;;;;5021535;28;86754;-59
2022/09/03 12:20:41;;;;;;;67.00;54.10;;;25.90;59.30;;;;;;5017107;27;85557;-59
2022/09/03 12:23:10;;;;;;;66.68;54.55;;;26.00;59.20;;;;;;5012560;27;86070;-59
2022/09/03 12:25:48;;;;;;;66.07;54.00;;;26.00;59.10;;;;;;5013428;27;87969;-60
2022/09/03 12:28:22;;;;;;;67.00;54.35;;;26.00;59.10;;;;;;5017951;27;89250;-60
2022/09/03 12:30:48;;;;;;;66.63;54.50;;;26.00;59.00;;;;;;5012396;27;87760;-58
2022/09/03 12:33:17;;;;;;;67.15;54.13;;;26.00;58.90;;;;;;5017195;27;85452;-56
2022/09/03 12:35:42;;;;;;;65.97;54.00;;;26.00;58.80;;;;;;5014405;27;86432;-59
2022/09/03 12:38:11;;;;;;;66.82;54.33;;;26.00;58.80;;;;;;5020407;27;88259;-59
2022/09/03 12:40:42;;;;;;;66.68;54.38;;;26.10;58.80;;;;;;5017470;27;87077;-60
2022/09/03 12:43:13;;;;;;;66.05;54.33;;;26.10;58.70;;;;;;5014064;28;86830;-59
2022/09/03 12:45:43;;;;;;;;;;;26.00;58.60;;;;;;5014285;27;86078;-58
2022/09/03 12:48:16;;;;;;;66.60;54.00;;;26.10;58.60;;;;;;5022011;27;85659;-59
2022/09/03 12:50:44;;;;;;;66.35;54.28;;;26.10;58.60;;;;;;5013689;27;85643;-58
2022/09/03 12:53:23;;;;;;;66.35;54.20;;;26.00;58.50;;;;;;5000562;28;85757;-58
2022/09/03 12:55:53;;;;;;;67.35;54.17;;;26.10;58.50;;;;;;5014097;27;86120;-59
2022/09/03 12:58:43;;;;;;;66.13;54.35;;;26.10;58.40;;;;;;5013100;27;87459;-59
2022/09/03 13:01:15;;;;;;;65.28;54.00;;;26.10;58.40;;;;;;5002430;27;87236;-59
2022/09/03 13:03:48;;;;;;;66.28;54.20;;;26.10;58.40;;;;;;5017945;27;86803;-59
2022/09/03 13:06:21;;;;;;;66.18;54.17;;;26.10;58.30;;;;;;5012021;27;89203;-60
2022/09/03 13:08:51;;;;;;;65.57;54.40;;;26.10;58.30;;;;;;5014621;27;87210;-59
2022/09/03 13:11:20;;;;;;;65.32;53.53;;;26.10;58.20;;;;;;5012214;27;86910;-59